sensor_id;sensor_type;location;lat;lon;timestamp;temperature;humidity
11908;DHT22;6014;47.690;9.130;2022-12-04T00:01:26;2.30;99.90
11908;DHT22;6014;47.690;9.130;2022-12-04T00:03:56;2.40;99.90
11908;DHT22;6014;47.690;9.130;2022-12-04T00:06:27;2.50;99.90
11908;DHT22;6014;47.690;9.130;2022-12-04T00:08:56;2.40;99.90
11908;DHT22;6014;47.690;9.130;2022-12-04T00:11:27;2.40;99.90
11908;DHT22;6014;47.690;9.130;2022-12-04T00:13:58;2.40;99.90
11908;DHT22;6014;47.690;9.130;2022-12-04T00:16:34;2.40;99.90
11908;DHT22;6014;47.690;9.130;2022-12-04T00:19:03;2.30;99.90
11908;DHT22;6014;47.690;9.130;2022-12-04T00:21:31;2.30;99.90
11908;DHT22;6014;47.690;9.130;2022-12-04T00:24:00;2.30;99.90
11908;DHT22;6014;47.690;9.130;2022-12-04T00:26:28;2.40;99.90
11908;DHT22;6014;47.690;9.130;2022-12-04T00:28:58;2.30;99.90
11908;DHT22;6014;47.690;9.130;2022-12-04T00:31:28;2.30;99.90
11908;DHT22;6014;47.690;9.130;2022-12-04T00:33:59;2.20;99.90
11908;DHT22;6014;47.690;9.130;2022-12-04T00:36:28;2.20;99.90
11908;DHT22;6014;47.690;9.130;2022-12-04T00:38:58;2.20;99.90
11908;DHT22;6014;47.690;9.130;2022-12-04T00:41:29;2.30;99.90
11908;DHT22;6014;47.690;9.130;2022-12-04T00:43:58;2.20;99.90
11908;DHT22;6014;47.690;9.130;2022-12-04T00:46:27;2.20;99.90
11908;DHT22;6014;47.690;9.130;2022-12-04T00:48:56;2.30;99.90
11908;DHT22;6014;47.690;9.130;2022-12-04T00:51:28;2.20;99.90
11908;DHT22;6014;47.690;9.130;2022-12-04T00:53:57;2.20;99.90
11908;DHT22;6014;47.690;9.130;2022-12-04T00:56:26;2.30;99.90
11908;DHT22;6014;47.690;9.130;2022-12-04T00:58:57;2.20;99.90
11908;DHT22;6014;47.690;9.130;2022-12-04T01:01:28;2.30;99.90
11908;DHT22;6014;47.690;9.130;2022-12-04T01:03:58;2.20;99.90
11908;DHT22;6014;47.690;9.130;2022-12-04T01:06:28;2.20;99.90
11908;DHT22;6014;47.690;9.130;2022-12-04T01:08:59;2.30;99.90
11908;DHT22;6014;47.690;9.130;2022-12-04T01:11:29;2.20;99.90
11908;DHT22;6014;47.690;9.130;2022-12-04T01:13:59;2.20;99.90
11908;DHT22;6014;47.690;9.130;2022-12-04T01:16:30;2.20;99.90
11908;DHT22;6014;47.690;9.130;2022-12-04T01:19:01;2.20;99.90
11908;DHT22;6014;47.690;9.130;2022-12-04T01:21:30;2.30;99.90
11908;DHT22;6014;47.690;9.130;2022-12-04T01:23:59;2.20;99.90
11908;DHT22;6014;47.690;9.130;2022-12-04T01:26:27;2.30;99.90
11908;DHT22;6014;47.690;9.130;2022-12-04T01:28:56;2.30;99.90
11908;DHT22;6014;47.690;9.130;2022-12-04T01:31:25;2.20;99.90
11908;DHT22;6014;47.690;9.130;2022-12-04T01:33:54;2.20;99.90
11908;DHT22;6014;47.690;9.130;2022-12-04T01:36:26;2.20;99.90
11908;DHT22;6014;47.690;9.130;2022-12-04T01:38:58;2.20;99.90
11908;DHT22;6014;47.690;9.130;2022-12-04T01:41:31;2.30;99.90
11908;DHT22;6014;47.690;9.130;2022-12-04T01:44:13;2.30;99.90
11908;DHT22;6014;47.690;9.130;2022-12-04T01:46:48;2.30;99.90
11908;DHT22;6014;47.690;9.130;2022-12-04T01:49:20;2.30;99.90
11908;DHT22;6014;47.690;9.130;2022-12-04T01:51:56;2.20;99.90
11908;DHT22;6014;47.690;9.130;2022-12-04T01:54:28;2.10;99.90
11908;DHT22;6014;47.690;9.130;2022-12-04T01:57:01;2.30;99.90
11908;DHT22;6014;47.690;9.130;2022-12-04T01:59:39;2.30;99.90
11908;DHT22;6014;47.690;9.130;2022-12-04T02:02:14;2.20;99.90
11908;DHT22;6014;47.690;9.130;2022-12-04T02:04:48;2.20;99.90
11908;DHT22;6014;47.690;9.130;2022-12-04T02:07:18;2.20;99.90
11908;DHT22;6014;47.690;9.130;2022-12-04T02:09:49;2.20;99.90
11908;DHT22;6014;47.690;9.130;2022-12-04T02:12:28;2.30;99.90
11908;DHT22;6014;47.690;9.130;2022-12-04T02:15:03;2.30;99.90
11908;DHT22;6014;47.690;9.130;2022-12-04T02:17:39;2.30;99.90
11908;DHT22;6014;47.690;9.130;2022-12-04T02:20:25;2.30;99.90
11908;DHT22;6014;47.690;9.130;2022-12-04T02:23:21;2.20;99.90
11908;DHT22;6014;47.690;9.130;2022-12-04T02:26:02;2.30;99.90
11908;DHT22;6014;47.690;9.130;2022-12-04T02:28:48;2.30;99.90
11908;DHT22;6014;47.690;9.130;2022-12-04T02:31:21;2.20;99.90
11908;DHT22;6014;47.690;9.130;2022-12-04T02:33:59;2.30;99.90
11908;DHT22;6014;47.690;9.130;2022-12-04T02:36:34;2.30;99.90
11908;DHT22;6014;47.690;9.130;2022-12-04T02:39:10;2.30;99.90
11908;DHT22;6014;47.690;9.130;2022-12-04T02:41:47;2.20;99.90
11908;DHT22;6014;47.690;9.130;2022-12-04T02:44:26;2.20;99.90
11908;DHT22;6014;47.690;9.130;2022-12-04T02:46:58;2.20;99.90
11908;DHT22;6014;47.690;9.130;2022-12-04T02:49:31;2.20;99.90
11908;DHT22;6014;47.690;9.130;2022-12-04T02:52:06;2.20;99.90
11908;DHT22;6014;47.690;9.130;2022-12-04T02:54:40;2.20;99.90
11908;DHT22;6014;47.690;9.130;2022-12-04T02:57:14;2.10;99.90
11908;DHT22;6014;47.690;9.130;2022-12-04T02:59:47;2.20;99.90
11908;DHT22;6014;47.690;9.130;2022-12-04T03:02:20;2.20;99.90
11908;DHT22;6014;47.690;9.130;2022-12-04T03:04:53;2.20;99.90
11908;DHT22;6014;47.690;9.130;2022-12-04T03:07:25;2.20;99.90
11908;DHT22;6014;47.690;9.130;2022-12-04T03:09:59;2.20;99.90
11908;DHT22;6014;47.690;9.130;2022-12-04T03:12:37;2.20;99.90
11908;DHT22;6014;47.690;9.130;2022-12-04T03:15:14;2.20;99.90
11908;DHT22;6014;47.690;9.130;2022-12-04T03:17:49;2.20;99.90
11908;DHT22;6014;47.690;9.130;2022-12-04T03:20:21;2.30;99.90
11908;DHT22;6014;47.690;9.130;2022-12-04T03:22:53;2.20;99.90
11908;DHT22;6014;47.690;9.130;2022-12-04T03:25:27;2.30;99.90
11908;DHT22;6014;47.690;9.130;2022-12-04T03:28:01;2.30;99.90
11908;DHT22;6014;47.690;9.130;2022-12-04T03:30:44;2.40;99.90
11908;DHT22;6014;47.690;9.130;2022-12-04T03:33:19;2.30;99.90
11908;DHT22;6014;47.690;9.130;2022-12-04T03:35:51;2.40;99.90
11908;DHT22;6014;47.690;9.130;2022-12-04T03:38:34;2.20;99.90
11908;DHT22;6014;47.690;9.130;2022-12-04T03:41:08;2.30;99.90
11908;DHT22;6014;47.690;9.130;2022-12-04T03:43:47;2.30;99.90
11908;DHT22;6014;47.690;9.130;2022-12-04T03:46:25;2.30;99.90
11908;DHT22;6014;47.690;9.130;2022-12-04T03:48:58;2.20;99.90
11908;DHT22;6014;47.690;9.130;2022-12-04T03:51:34;2.20;99.90
11908;DHT22;6014;47.690;9.130;2022-12-04T03:54:08;2.20;99.90
11908;DHT22;6014;47.690;9.130;2022-12-04T03:56:40;2.20;99.90
11908;DHT22;6014;47.690;9.130;2022-12-04T03:59:14;2.20;99.90
11908;DHT22;6014;47.690;9.130;2022-12-04T04:01:48;2.20;99.90
11908;DHT22;6014;47.690;9.130;2022-12-04T04:04:26;2.20;99.90
11908;DHT22;6014;47.690;9.130;2022-12-04T04:07:02;2.20;99.90
11908;DHT22;6014;47.690;9.130;2022-12-04T04:09:37;2.20;99.90
11908;DHT22;6014;47.690;9.130;2022-12-04T04:12:10;2.10;99.90
11908;DHT22;6014;47.690;9.130;2022-12-04T04:14:44;2.20;99.90
11908;DHT22;6014;47.690;9.130;2022-12-04T04:17:43;2.30;99.90
11908;DHT22;6014;47.690;9.130;2022-12-04T04:20:35;2.30;99.90
11908;DHT22;6014;47.690;9.130;2022-12-04T04:23:26;2.10;99.90
11908;DHT22;6014;47.690;9.130;2022-12-04T04:26:15;2.10;99.90
11908;DHT22;6014;47.690;9.130;2022-12-04T04:28:45;2.20;99.90
11908;DHT22;6014;47.690;9.130;2022-12-04T04:31:19;2.20;99.90
11908;DHT22;6014;47.690;9.130;2022-12-04T04:33:56;2.10;99.90
11908;DHT22;6014;47.690;9.130;2022-12-04T04:36:34;2.20;99.90
11908;DHT22;6014;47.690;9.130;2022-12-04T04:39:14;2.20;99.90
11908;DHT22;6014;47.690;9.130;2022-12-04T04:41:50;2.20;99.90
11908;DHT22;6014;47.690;9.130;2022-12-04T04:44:25;2.30;99.90
11908;DHT22;6014;47.690;9.130;2022-12-04T04:47:02;2.20;99.90
11908;DHT22;6014;47.690;9.130;2022-12-04T04:49:33;2.20;99.90
11908;DHT22;6014;47.690;9.130;2022-12-04T04:52:04;2.20;99.90
11908;DHT22;6014;47.690;9.130;2022-12-04T04:54:33;2.10;99.90
11908;DHT22;6014;47.690;9.130;2022-12-04T04:57:03;2.10;99.90
11908;DHT22;6014;47.690;9.130;2022-12-04T04:59:32;2.20;99.90
11908;DHT22;6014;47.690;9.130;2022-12-04T05:02:01;2.30;99.90
11908;DHT22;6014;47.690;9.130;2022-12-04T05:04:30;2.20;99.90
11908;DHT22;6014;47.690;9.130;2022-12-04T05:07:00;2.20;99.90
11908;DHT22;6014;47.690;9.130;2022-12-04T05:09:28;2.10;99.90
11908;DHT22;6014;47.690;9.130;2022-12-04T05:11:56;2.10;99.90
11908;DHT22;6014;47.690;9.130;2022-12-04T05:14:24;2.10;99.90
11908;DHT22;6014;47.690;9.130;2022-12-04T05:16:53;2.10;99.90
11908;DHT22;6014;47.690;9.130;2022-12-04T05:19:31;2.10;99.90
11908;DHT22;6014;47.690;9.130;2022-12-04T05:22:19;2.10;99.90
11908;DHT22;6014;47.690;9.130;2022-12-04T05:24:48;2.00;99.90
11908;DHT22;6014;47.690;9.130;2022-12-04T05:27:17;2.10;99.90
11908;DHT22;6014;47.690;9.130;2022-12-04T05:29:45;2.10;99.90
11908;DHT22;6014;47.690;9.130;2022-12-04T05:32:14;2.00;99.90
11908;DHT22;6014;47.690;9.130;2022-12-04T05:34:42;2.10;99.90
11908;DHT22;6014;47.690;9.130;2022-12-04T05:37:10;2.10;99.90
11908;DHT22;6014;47.690;9.130;2022-12-04T05:39:40;2.10;99.90
11908;DHT22;6014;47.690;9.130;2022-12-04T05:42:09;2.20;99.90
11908;DHT22;6014;47.690;9.130;2022-12-04T05:44:38;2.10;99.90
11908;DHT22;6014;47.690;9.130;2022-12-04T05:47:06;2.20;99.90
11908;DHT22;6014;47.690;9.130;2022-12-04T05:49:35;2.20;99.90
11908;DHT22;6014;47.690;9.130;2022-12-04T05:52:04;2.20;99.90
11908;DHT22;6014;47.690;9.130;2022-12-04T05:54:33;2.20;99.90
11908;DHT22;6014;47.690;9.130;2022-12-04T05:57:03;2.20;99.90
11908;DHT22;6014;47.690;9.130;2022-12-04T05:59:32;2.10;99.90
11908;DHT22;6014;47.690;9.130;2022-12-04T06:02:01;2.10;99.90
11908;DHT22;6014;47.690;9.130;2022-12-04T06:04:31;2.20;99.90
11908;DHT22;6014;47.690;9.130;2022-12-04T06:07:01;2.10;99.90
11908;DHT22;6014;47.690;9.130;2022-12-04T06:09:29;2.20;99.90
11908;DHT22;6014;47.690;9.130;2022-12-04T06:11:58;2.10;99.90
11908;DHT22;6014;47.690;9.130;2022-12-04T06:14:28;2.20;99.90
11908;DHT22;6014;47.690;9.130;2022-12-04T06:17:03;2.20;99.90
11908;DHT22;6014;47.690;9.130;2022-12-04T06:19:31;2.10;99.90
11908;DHT22;6014;47.690;9.130;2022-12-04T06:22:00;2.10;99.90
11908;DHT22;6014;47.690;9.130;2022-12-04T06:24:28;2.20;99.90
11908;DHT22;6014;47.690;9.130;2022-12-04T06:26:58;2.20;99.90
11908;DHT22;6014;47.690;9.130;2022-12-04T06:29:48;2.30;99.90
11908;DHT22;6014;47.690;9.130;2022-12-04T06:32:17;2.30;99.90
11908;DHT22;6014;47.690;9.130;2022-12-04T06:34:49;2.30;99.90
11908;DHT22;6014;47.690;9.130;2022-12-04T06:37:19;2.30;99.90
11908;DHT22;6014;47.690;9.130;2022-12-04T06:39:49;2.30;99.90
11908;DHT22;6014;47.690;9.130;2022-12-04T06:42:18;2.30;99.90
11908;DHT22;6014;47.690;9.130;2022-12-04T06:44:49;2.30;99.90
11908;DHT22;6014;47.690;9.130;2022-12-04T06:47:18;2.30;99.90
11908;DHT22;6014;47.690;9.130;2022-12-04T06:49:48;2.30;99.90
11908;DHT22;6014;47.690;9.130;2022-12-04T06:52:18;2.30;99.90
11908;DHT22;6014;47.690;9.130;2022-12-04T06:54:46;2.20;99.90
11908;DHT22;6014;47.690;9.130;2022-12-04T06:57:14;2.20;99.90
11908;DHT22;6014;47.690;9.130;2022-12-04T06:59:42;2.30;99.90
11908;DHT22;6014;47.690;9.130;2022-12-04T07:02:12;2.30;99.90
11908;DHT22;6014;47.690;9.130;2022-12-04T07:04:41;2.30;99.90
11908;DHT22;6014;47.690;9.130;2022-12-04T07:07:09;2.30;99.90
11908;DHT22;6014;47.690;9.130;2022-12-04T07:09:39;2.40;99.90
11908;DHT22;6014;47.690;9.130;2022-12-04T07:12:07;2.40;99.90
11908;DHT22;6014;47.690;9.130;2022-12-04T07:14:36;2.30;99.90
11908;DHT22;6014;47.690;9.130;2022-12-04T07:17:04;2.20;99.90
11908;DHT22;6014;47.690;9.130;2022-12-04T07:19:34;2.20;99.90
11908;DHT22;6014;47.690;9.130;2022-12-04T07:22:04;2.20;99.90
11908;DHT22;6014;47.690;9.130;2022-12-04T07:24:32;2.30;99.90
11908;DHT22;6014;47.690;9.130;2022-12-04T07:27:00;2.20;99.90
11908;DHT22;6014;47.690;9.130;2022-12-04T07:29:29;2.30;99.90
11908;DHT22;6014;47.690;9.130;2022-12-04T07:31:58;2.20;99.90
11908;DHT22;6014;47.690;9.130;2022-12-04T07:34:27;2.30;99.90
11908;DHT22;6014;47.690;9.130;2022-12-04T07:36:57;2.40;99.90
11908;DHT22;6014;47.690;9.130;2022-12-04T07:39:25;2.40;99.90
11908;DHT22;6014;47.690;9.130;2022-12-04T07:41:54;2.20;99.90
11908;DHT22;6014;47.690;9.130;2022-12-04T07:44:22;2.30;99.90
11908;DHT22;6014;47.690;9.130;2022-12-04T07:46:50;2.30;99.90
11908;DHT22;6014;47.690;9.130;2022-12-04T07:49:19;2.20;99.90
11908;DHT22;6014;47.690;9.130;2022-12-04T07:51:47;2.30;99.90
11908;DHT22;6014;47.690;9.130;2022-12-04T07:54:17;2.30;99.90
11908;DHT22;6014;47.690;9.130;2022-12-04T07:56:48;2.30;99.90
11908;DHT22;6014;47.690;9.130;2022-12-04T07:59:16;2.40;99.90
11908;DHT22;6014;47.690;9.130;2022-12-04T08:01:45;2.40;99.90
11908;DHT22;6014;47.690;9.130;2022-12-04T08:04:13;2.40;99.90
11908;DHT22;6014;47.690;9.130;2022-12-04T08:06:42;2.50;99.90
11908;DHT22;6014;47.690;9.130;2022-12-04T08:09:10;2.50;99.90
11908;DHT22;6014;47.690;9.130;2022-12-04T08:11:40;2.60;99.90
11908;DHT22;6014;47.690;9.130;2022-12-04T08:14:10;2.60;99.90
11908;DHT22;6014;47.690;9.130;2022-12-04T08:16:39;2.40;99.90
11908;DHT22;6014;47.690;9.130;2022-12-04T08:19:07;2.30;99.90
11908;DHT22;6014;47.690;9.130;2022-12-04T08:21:36;2.40;99.90
11908;DHT22;6014;47.690;9.130;2022-12-04T08:24:05;2.40;99.90
11908;DHT22;6014;47.690;9.130;2022-12-04T08:26:33;2.40;99.90
11908;DHT22;6014;47.690;9.130;2022-12-04T08:29:04;2.30;99.90
11908;DHT22;6014;47.690;9.130;2022-12-04T08:31:35;2.20;99.90
11908;DHT22;6014;47.690;9.130;2022-12-04T08:34:05;2.30;99.90
11908;DHT22;6014;47.690;9.130;2022-12-04T08:36:34;2.40;99.90
11908;DHT22;6014;47.690;9.130;2022-12-04T08:39:03;2.30;99.90
11908;DHT22;6014;47.690;9.130;2022-12-04T08:41:32;2.40;99.90
11908;DHT22;6014;47.690;9.130;2022-12-04T08:44:00;2.40;99.90
11908;DHT22;6014;47.690;9.130;2022-12-04T08:46:31;2.60;99.90
11908;DHT22;6014;47.690;9.130;2022-12-04T08:49:00;2.50;99.90
11908;DHT22;6014;47.690;9.130;2022-12-04T08:51:30;2.50;99.90
11908;DHT22;6014;47.690;9.130;2022-12-04T08:54:03;2.50;99.90
11908;DHT22;6014;47.690;9.130;2022-12-04T08:56:34;2.50;99.90
11908;DHT22;6014;47.690;9.130;2022-12-04T08:59:03;2.60;99.90
11908;DHT22;6014;47.690;9.130;2022-12-04T09:01:33;2.70;99.90
11908;DHT22;6014;47.690;9.130;2022-12-04T09:04:03;2.70;99.90
11908;DHT22;6014;47.690;9.130;2022-12-04T09:06:32;2.70;99.90
11908;DHT22;6014;47.690;9.130;2022-12-04T09:09:01;2.70;99.90
11908;DHT22;6014;47.690;9.130;2022-12-04T09:11:29;2.70;99.90
11908;DHT22;6014;47.690;9.130;2022-12-04T09:14:00;2.60;99.90
11908;DHT22;6014;47.690;9.130;2022-12-04T09:16:29;2.60;99.90
11908;DHT22;6014;47.690;9.130;2022-12-04T09:18:59;2.60;99.90
11908;DHT22;6014;47.690;9.130;2022-12-04T09:21:27;2.60;99.90
11908;DHT22;6014;47.690;9.130;2022-12-04T09:23:57;2.70;99.90
11908;DHT22;6014;47.690;9.130;2022-12-04T09:26:28;2.80;99.90
11908;DHT22;6014;47.690;9.130;2022-12-04T09:28:58;2.70;99.90
11908;DHT22;6014;47.690;9.130;2022-12-04T09:31:28;2.60;99.90
11908;DHT22;6014;47.690;9.130;2022-12-04T09:33:58;2.70;99.90
11908;DHT22;6014;47.690;9.130;2022-12-04T09:36:31;2.70;99.90
11908;DHT22;6014;47.690;9.130;2022-12-04T09:38:59;2.60;99.90
11908;DHT22;6014;47.690;9.130;2022-12-04T09:41:55;2.60;99.90
11908;DHT22;6014;47.690;9.130;2022-12-04T09:44:45;2.60;99.90
11908;DHT22;6014;47.690;9.130;2022-12-04T09:47:20;2.60;99.90
11908;DHT22;6014;47.690;9.130;2022-12-04T09:49:54;2.70;99.90
11908;DHT22;6014;47.690;9.130;2022-12-04T09:52:33;2.90;99.90
11908;DHT22;6014;47.690;9.130;2022-12-04T09:55:14;2.90;99.90
11908;DHT22;6014;47.690;9.130;2022-12-04T09:57:48;2.80;99.90
11908;DHT22;6014;47.690;9.130;2022-12-04T10:00:26;2.80;99.90
11908;DHT22;6014;47.690;9.130;2022-12-04T10:03:00;2.80;99.90
11908;DHT22;6014;47.690;9.130;2022-12-04T10:05:44;2.80;99.90
11908;DHT22;6014;47.690;9.130;2022-12-04T10:08:20;2.80;99.90
11908;DHT22;6014;47.690;9.130;2022-12-04T10:11:04;2.90;99.90
11908;DHT22;6014;47.690;9.130;2022-12-04T10:13:56;2.90;99.90
11908;DHT22;6014;47.690;9.130;2022-12-04T10:16:39;2.80;99.90
11908;DHT22;6014;47.690;9.130;2022-12-04T10:19:18;2.80;99.90
11908;DHT22;6014;47.690;9.130;2022-12-04T10:21:57;2.80;99.90
11908;DHT22;6014;47.690;9.130;2022-12-04T10:24:39;2.90;99.90
11908;DHT22;6014;47.690;9.130;2022-12-04T10:27:17;2.90;99.90
11908;DHT22;6014;47.690;9.130;2022-12-04T10:29:53;2.80;99.90
11908;DHT22;6014;47.690;9.130;2022-12-04T10:32:26;2.80;99.90
11908;DHT22;6014;47.690;9.130;2022-12-04T10:35:13;2.80;99.90
11908;DHT22;6014;47.690;9.130;2022-12-04T10:37:52;2.80;99.90
11908;DHT22;6014;47.690;9.130;2022-12-04T10:40:29;2.80;99.90
11908;DHT22;6014;47.690;9.130;2022-12-04T10:43:04;2.80;99.90
11908;DHT22;6014;47.690;9.130;2022-12-04T10:45:38;3.00;99.90
11908;DHT22;6014;47.690;9.130;2022-12-04T10:48:12;3.10;99.90
11908;DHT22;6014;47.690;9.130;2022-12-04T10:50:46;3.30;99.90
11908;DHT22;6014;47.690;9.130;2022-12-04T10:53:15;3.50;99.90
11908;DHT22;6014;47.690;9.130;2022-12-04T10:55:45;3.40;99.90
11908;DHT22;6014;47.690;9.130;2022-12-04T10:58:16;3.50;99.90
11908;DHT22;6014;47.690;9.130;2022-12-04T11:00:59;3.30;99.90
11908;DHT22;6014;47.690;9.130;2022-12-04T11:03:31;3.40;99.90
11908;DHT22;6014;47.690;9.130;2022-12-04T11:06:02;3.40;99.90
11908;DHT22;6014;47.690;9.130;2022-12-04T11:08:36;3.40;99.90
11908;DHT22;6014;47.690;9.130;2022-12-04T11:11:08;3.40;99.90
11908;DHT22;6014;47.690;9.130;2022-12-04T11:13:39;3.40;99.90
11908;DHT22;6014;47.690;9.130;2022-12-04T11:16:29;3.50;99.90
11908;DHT22;6014;47.690;9.130;2022-12-04T11:19:02;3.50;99.90
11908;DHT22;6014;47.690;9.130;2022-12-04T11:21:31;3.50;99.90
11908;DHT22;6014;47.690;9.130;2022-12-04T11:24:01;3.50;99.90
11908;DHT22;6014;47.690;9.130;2022-12-04T11:26:31;3.50;99.90
11908;DHT22;6014;47.690;9.130;2022-12-04T11:29:03;3.50;99.90
11908;DHT22;6014;47.690;9.130;2022-12-04T11:31:33;3.60;99.90
11908;DHT22;6014;47.690;9.130;2022-12-04T11:34:05;3.50;99.90
11908;DHT22;6014;47.690;9.130;2022-12-04T11:36:37;3.60;99.90
11908;DHT22;6014;47.690;9.130;2022-12-04T11:39:21;3.50;99.90
11908;DHT22;6014;47.690;9.130;2022-12-04T11:42:00;3.50;99.90
11908;DHT22;6014;47.690;9.130;2022-12-04T11:44:31;3.50;99.90
11908;DHT22;6014;47.690;9.130;2022-12-04T11:47:05;3.60;99.90
11908;DHT22;6014;47.690;9.130;2022-12-04T11:49:41;3.40;99.90
11908;DHT22;6014;47.690;9.130;2022-12-04T11:52:21;3.30;99.90
11908;DHT22;6014;47.690;9.130;2022-12-04T11:55:00;3.40;99.90
11908;DHT22;6014;47.690;9.130;2022-12-04T11:57:36;3.40;99.90
11908;DHT22;6014;47.690;9.130;2022-12-04T12:00:11;3.40;99.90
11908;DHT22;6014;47.690;9.130;2022-12-04T12:03:05;3.30;99.90
11908;DHT22;6014;47.690;9.130;2022-12-04T12:06:02;3.40;99.90
11908;DHT22;6014;47.690;9.130;2022-12-04T12:08:59;3.40;99.90
11908;DHT22;6014;47.690;9.130;2022-12-04T12:11:41;3.40;99.90
11908;DHT22;6014;47.690;9.130;2022-12-04T12:14:21;3.40;99.90
11908;DHT22;6014;47.690;9.130;2022-12-04T12:17:00;3.40;99.90
11908;DHT22;6014;47.690;9.130;2022-12-04T12:20:06;3.40;99.90
11908;DHT22;6014;47.690;9.130;2022-12-04T12:22:59;3.40;99.90
11908;DHT22;6014;47.690;9.130;2022-12-04T12:25:39;3.30;99.90
11908;DHT22;6014;47.690;9.130;2022-12-04T12:28:35;3.40;99.90
11908;DHT22;6014;47.690;9.130;2022-12-04T12:34:10;3.30;99.90
11908;DHT22;6014;47.690;9.130;2022-12-04T12:36:44;3.50;99.90
11908;DHT22;6014;47.690;9.130;2022-12-04T12:39:18;3.50;99.90
11908;DHT22;6014;47.690;9.130;2022-12-04T12:41:51;3.50;99.90
11908;DHT22;6014;47.690;9.130;2022-12-04T12:44:26;3.60;99.90
11908;DHT22;6014;47.690;9.130;2022-12-04T12:47:04;3.80;99.90
11908;DHT22;6014;47.690;9.130;2022-12-04T12:49:40;3.90;99.90
11908;DHT22;6014;47.690;9.130;2022-12-04T12:52:16;3.70;99.90
11908;DHT22;6014;47.690;9.130;2022-12-04T12:54:54;3.70;99.90
11908;DHT22;6014;47.690;9.130;2022-12-04T12:57:27;3.70;99.90
11908;DHT22;6014;47.690;9.130;2022-12-04T13:00:04;3.60;99.90
11908;DHT22;6014;47.690;9.130;2022-12-04T13:02:39;3.50;99.90
11908;DHT22;6014;47.690;9.130;2022-12-04T13:05:13;3.50;99.90
11908;DHT22;6014;47.690;9.130;2022-12-04T13:07:48;3.60;99.90
11908;DHT22;6014;47.690;9.130;2022-12-04T13:10:23;3.70;99.90
11908;DHT22;6014;47.690;9.130;2022-12-04T13:12:57;3.70;99.90
11908;DHT22;6014;47.690;9.130;2022-12-04T13:15:34;3.80;99.90
11908;DHT22;6014;47.690;9.130;2022-12-04T13:18:07;3.60;99.90
11908;DHT22;6014;47.690;9.130;2022-12-04T13:20:46;3.70;99.90
11908;DHT22;6014;47.690;9.130;2022-12-04T13:23:42;3.70;99.90
11908;DHT22;6014;47.690;9.130;2022-12-04T13:26:23;3.70;99.90
11908;DHT22;6014;47.690;9.130;2022-12-04T13:29:11;3.70;99.90
11908;DHT22;6014;47.690;9.130;2022-12-04T13:31:49;3.70;99.90
11908;DHT22;6014;47.690;9.130;2022-12-04T13:34:46;3.80;99.90
11908;DHT22;6014;47.690;9.130;2022-12-04T13:37:34;3.70;99.90
11908;DHT22;6014;47.690;9.130;2022-12-04T13:40:32;3.60;99.90
11908;DHT22;6014;47.690;9.130;2022-12-04T13:43:15;3.50;99.90
11908;DHT22;6014;47.690;9.130;2022-12-04T13:46:01;3.50;99.90
11908;DHT22;6014;47.690;9.130;2022-12-04T13:48:38;3.50;99.90
11908;DHT22;6014;47.690;9.130;2022-12-04T13:51:33;3.50;99.90
11908;DHT22;6014;47.690;9.130;2022-12-04T13:54:20;3.40;99.90
11908;DHT22;6014;47.690;9.130;2022-12-04T13:56:55;3.40;99.90
11908;DHT22;6014;47.690;9.130;2022-12-04T13:59:36;3.50;99.90
11908;DHT22;6014;47.690;9.130;2022-12-04T14:02:21;3.50;99.90
11908;DHT22;6014;47.690;9.130;2022-12-04T14:04:58;3.40;99.90
11908;DHT22;6014;47.690;9.130;2022-12-04T14:07:30;3.30;99.90
11908;DHT22;6014;47.690;9.130;2022-12-04T14:10:03;3.30;99.90
11908;DHT22;6014;47.690;9.130;2022-12-04T14:12:35;3.30;99.90
11908;DHT22;6014;47.690;9.130;2022-12-04T14:15:06;3.30;99.90
11908;DHT22;6014;47.690;9.130;2022-12-04T14:17:37;3.20;99.90
11908;DHT22;6014;47.690;9.130;2022-12-04T14:20:22;3.30;99.90
11908;DHT22;6014;47.690;9.130;2022-12-04T14:22:52;3.30;99.90
11908;DHT22;6014;47.690;9.130;2022-12-04T14:25:31;3.50;99.90
11908;DHT22;6014;47.690;9.130;2022-12-04T14:28:20;3.50;99.90
11908;DHT22;6014;47.690;9.130;2022-12-04T14:31:13;3.50;99.90
11908;DHT22;6014;47.690;9.130;2022-12-04T14:33:51;3.50;99.90
11908;DHT22;6014;47.690;9.130;2022-12-04T14:36:24;3.60;99.90
11908;DHT22;6014;47.690;9.130;2022-12-04T14:39:07;3.50;99.90
11908;DHT22;6014;47.690;9.130;2022-12-04T14:41:40;3.50;99.90
11908;DHT22;6014;47.690;9.130;2022-12-04T14:44:20;3.40;99.90
11908;DHT22;6014;47.690;9.130;2022-12-04T14:46:55;3.40;99.90
11908;DHT22;6014;47.690;9.130;2022-12-04T14:49:37;3.40;99.90
11908;DHT22;6014;47.690;9.130;2022-12-04T14:52:19;3.40;99.90
11908;DHT22;6014;47.690;9.130;2022-12-04T14:54:55;3.40;99.90
11908;DHT22;6014;47.690;9.130;2022-12-04T14:57:44;3.40;99.90
11908;DHT22;6014;47.690;9.130;2022-12-04T15:00:17;3.40;99.90
11908;DHT22;6014;47.690;9.130;2022-12-04T15:02:50;3.40;99.90
11908;DHT22;6014;47.690;9.130;2022-12-04T15:05:24;3.40;99.90
11908;DHT22;6014;47.690;9.130;2022-12-04T15:07:58;3.40;99.90
11908;DHT22;6014;47.690;9.130;2022-12-04T15:10:30;3.50;99.90
11908;DHT22;6014;47.690;9.130;2022-12-04T15:13:24;3.40;99.90
11908;DHT22;6014;47.690;9.130;2022-12-04T15:15:53;3.30;99.90
11908;DHT22;6014;47.690;9.130;2022-12-04T15:18:22;3.30;99.90
11908;DHT22;6014;47.690;9.130;2022-12-04T15:20:56;3.30;99.90
11908;DHT22;6014;47.690;9.130;2022-12-04T15:23:33;3.30;99.90
11908;DHT22;6014;47.690;9.130;2022-12-04T15:26:06;3.30;99.90
11908;DHT22;6014;47.690;9.130;2022-12-04T15:28:41;3.30;99.90
11908;DHT22;6014;47.690;9.130;2022-12-04T15:31:18;3.40;99.90
11908;DHT22;6014;47.690;9.130;2022-12-04T15:33:54;3.40;99.90
11908;DHT22;6014;47.690;9.130;2022-12-04T15:36:42;3.50;99.90
11908;DHT22;6014;47.690;9.130;2022-12-04T15:39:17;3.50;99.90
11908;DHT22;6014;47.690;9.130;2022-12-04T15:41:46;3.50;99.90
11908;DHT22;6014;47.690;9.130;2022-12-04T15:44:26;3.40;99.90
11908;DHT22;6014;47.690;9.130;2022-12-04T15:46:59;3.30;99.90
11908;DHT22;6014;47.690;9.130;2022-12-04T15:49:29;3.30;99.90
11908;DHT22;6014;47.690;9.130;2022-12-04T15:52:05;3.30;99.90
11908;DHT22;6014;47.690;9.130;2022-12-04T15:54:43;3.30;99.90
11908;DHT22;6014;47.690;9.130;2022-12-04T15:57:20;3.30;99.90
11908;DHT22;6014;47.690;9.130;2022-12-04T15:59:54;3.20;99.90
11908;DHT22;6014;47.690;9.130;2022-12-04T16:02:28;3.30;99.90
11908;DHT22;6014;47.690;9.130;2022-12-04T16:05:08;3.40;99.90
11908;DHT22;6014;47.690;9.130;2022-12-04T16:07:48;3.40;99.90
11908;DHT22;6014;47.690;9.130;2022-12-04T16:10:21;3.40;99.90
11908;DHT22;6014;47.690;9.130;2022-12-04T16:12:52;3.40;99.90
11908;DHT22;6014;47.690;9.130;2022-12-04T16:15:21;3.30;99.90
11908;DHT22;6014;47.690;9.130;2022-12-04T16:17:51;3.30;99.90
11908;DHT22;6014;47.690;9.130;2022-12-04T16:20:19;3.30;99.90
11908;DHT22;6014;47.690;9.130;2022-12-04T16:22:50;3.20;99.90
11908;DHT22;6014;47.690;9.130;2022-12-04T16:25:21;3.10;99.90
11908;DHT22;6014;47.690;9.130;2022-12-04T16:27:50;3.10;99.90
11908;DHT22;6014;47.690;9.130;2022-12-04T16:30:18;3.10;99.90
11908;DHT22;6014;47.690;9.130;2022-12-04T16:32:46;3.20;99.90
11908;DHT22;6014;47.690;9.130;2022-12-04T16:35:15;3.30;99.90
11908;DHT22;6014;47.690;9.130;2022-12-04T16:37:44;3.30;99.90
11908;DHT22;6014;47.690;9.130;2022-12-04T16:40:13;3.30;99.90
11908;DHT22;6014;47.690;9.130;2022-12-04T16:42:43;3.30;99.90
11908;DHT22;6014;47.690;9.130;2022-12-04T16:45:20;3.40;99.90
11908;DHT22;6014;47.690;9.130;2022-12-04T16:47:50;3.40;99.90
11908;DHT22;6014;47.690;9.130;2022-12-04T16:50:19;3.40;99.90